Time;durP1;ratioP1;P1;durP2;ratioP2;P2;SDS_P1;SDS_P2;PMS_P1;PMS_P2;Temp;Humidity;BMP_temperature;BMP_pressure;BME280_temperature;BME280_humidity;BME280_pressure;Samples;Min_cycle;Max_cycle;Signal;HPM_P1;HPM_P2
2022/07/23 00:01:51;;;;;;;;;;;27.50;54.30;;;;;;5018946;28;19955;-76
2022/07/23 00:04:19;;;;;;;;;;;27.50;53.80;;;;;;5021554;28;19936;-76
2022/07/23 00:06:46;;;;;;;;;;;27.50;53.90;;;;;;5026309;28;20416;-77
2022/07/23 00:09:12;;;;;;;;;;;27.50;54.00;;;;;;5019272;28;20304;-76
2022/07/23 00:11:39;;;;;;;;;;;27.50;54.00;;;;;;5019119;28;20287;-75
2022/07/23 00:14:06;;;;;;;;;;;27.50;54.30;;;;;;5028764;28;20075;-76
2022/07/23 00:16:32;;;;;;;;;;;27.40;54.30;;;;;;5016254;28;20417;-76
2022/07/23 00:19:01;;;;;;;;;;;27.40;54.20;;;;;;5019063;28;19933;-76
2022/07/23 00:21:28;;;;;;;;;;;27.40;54.00;;;;;;5021104;28;19960;-76
2022/07/23 00:23:55;;;;;;;;;;;27.40;54.00;;;;;;5015210;28;19929;-76
2022/07/23 00:26:22;;;;;;;;;;;27.40;54.10;;;;;;5024701;28;19960;-76
2022/07/23 00:28:48;;;;;;;;;;;27.40;53.80;;;;;;5020710;28;20491;-76
2022/07/23 00:31:15;;;;;;;;;;;27.30;53.80;;;;;;5016646;28;19933;-76
2022/07/23 00:33:41;;;;;;;;;;;27.30;53.70;;;;;;5017484;28;20008;-76
2022/07/23 00:36:08;;;;;;;;;;;27.30;53.70;;;;;;5022046;28;19940;-76
2022/07/23 00:38:36;;;;;;;;;;;27.30;53.60;;;;;;5021032;28;20439;-77
2022/07/23 00:41:03;;;;;;;;;;;27.30;53.60;;;;;;5013738;28;19955;-76
2022/07/23 00:43:29;;;;;;;;;;;27.20;53.60;;;;;;5033078;28;19928;-76
2022/07/23 00:45:56;;;;;;;;;;;27.30;53.80;;;;;;5023999;28;19936;-76
2022/07/23 00:48:22;;;;;;;;;;;27.20;53.60;;;;;;5022436;28;19998;-76
2022/07/23 00:50:49;;;;;;;;;;;27.20;53.60;;;;;;5018456;28;20341;-76
2022/07/23 00:53:16;;;;;;;;;;;27.20;53.70;;;;;;5023655;28;19930;-76
2022/07/23 00:55:44;;;;;;;;;;;27.10;53.70;;;;;;5019335;28;20852;-75
2022/07/23 00:58:11;;;;;;;;;;;27.10;53.80;;;;;;5026846;28;19951;-76
2022/07/23 01:00:37;;;;;;;;;;;27.10;53.90;;;;;;5021778;28;19933;-76
2022/07/23 01:03:04;;;;;;;;;;;27.10;53.90;;;;;;5021078;28;19929;-76
2022/07/23 01:05:30;;;;;;;;;;;27.10;53.90;;;;;;5024809;28;19936;-75
2022/07/23 01:07:57;;;;;;;;;;;27.00;54.00;;;;;;5022501;28;19929;-76
2022/07/23 01:10:33;;;;;;;;;;;27.00;54.10;;;;;;5023657;28;19936;-76
2022/07/23 01:13:02;;;;;;;;;;;27.00;54.30;;;;;;5021327;28;19929;-76
2022/07/23 01:15:29;;;;;;;;;;;26.90;54.20;;;;;;5026141;28;20573;-75
2022/07/23 01:17:56;;;;;;;;;;;27.00;54.30;;;;;;5018600;28;19936;-76
2022/07/23 01:20:22;;;;;;;;;;;26.90;54.30;;;;;;5023203;28;19940;-76
2022/07/23 01:22:50;;;;;;;;;;;26.90;54.40;;;;;;5023938;28;19929;-76
2022/07/23 01:25:17;;;;;;;;;;;26.90;54.40;;;;;;5021466;28;20372;-75
2022/07/23 01:27:43;;;;;;;;;;;26.90;54.40;;;;;;5024810;28;19948;-76
2022/07/23 01:30:10;;;;;;;;;;;26.90;54.60;;;;;;5025730;28;20378;-76
2022/07/23 01:32:37;;;;;;;;;;;26.80;54.60;;;;;;5019816;28;19929;-76
2022/07/23 01:35:04;;;;;;;;;;;26.80;54.70;;;;;;5023206;28;19933;-76
2022/07/23 01:37:30;;;;;;;;;;;26.80;54.80;;;;;;5026030;28;19929;-76
2022/07/23 01:39:58;;;;;;;;;;;26.80;54.80;;;;;;5022798;28;19929;-76
2022/07/23 01:42:25;;;;;;;;;;;26.80;54.90;;;;;;5026922;28;19936;-76
2022/07/23 01:44:52;;;;;;;;;;;26.70;55.00;;;;;;4965289;28;1731008;-76
2022/07/23 01:47:18;;;;;;;;;;;26.70;55.20;;;;;;5023247;28;19936;-75
2022/07/23 01:49:45;;;;;;;;;;;26.70;55.40;;;;;;5027852;28;20636;-76
2022/07/23 01:52:11;;;;;;;;;;;26.70;55.50;;;;;;5025061;28;20417;-76
2022/07/23 01:54:39;;;;;;;;;;;26.60;55.50;;;;;;5023220;28;19929;-76
2022/07/23 01:57:07;;;;;;;;;;;26.60;55.50;;;;;;5025086;28;20030;-73
2022/07/23 01:59:34;;;;;;;;;;;26.60;55.60;;;;;;5021232;28;19929;-76
2022/07/23 02:02:01;;;;;;;;;;;26.50;55.60;;;;;;5020825;28;19929;-75
2022/07/23 02:04:28;;;;;;;;;;;26.60;55.70;;;;;;5021716;28;19933;-76
2022/07/23 02:06:55;;;;;;;;;;;26.50;55.80;;;;;;5012553;28;19955;-76
2022/07/23 02:09:22;;;;;;;;;;;26.50;55.90;;;;;;5021821;28;19952;-75
2022/07/23 02:11:49;;;;;;;;;;;26.40;55.80;;;;;;5019925;28;19996;-77
2022/07/23 02:14:17;;;;;;;;;;;26.40;55.90;;;;;;5018128;28;19948;-76
2022/07/23 02:16:44;;;;;;;;;;;26.40;56.00;;;;;;5015229;28;20003;-76
2022/07/23 02:19:11;;;;;;;;;;;26.40;56.00;;;;;;5019311;28;19951;-76
2022/07/23 02:21:37;;;;;;;;;;;26.40;56.20;;;;;;5026025;28;19929;-75
2022/07/23 02:24:04;;;;;;;;;;;26.30;56.20;;;;;;5019564;28;19929;-76
2022/07/23 02:26:34;;;;;;;;;;;26.30;56.10;;;;;;5022305;28;19929;-76
2022/07/23 02:29:01;;;;;;;;;;;26.30;56.20;;;;;;5021566;28;19929;-76
2022/07/23 02:31:29;;;;;;;;;;;26.20;56.20;;;;;;5016934;28;20381;-76
2022/07/23 02:33:55;;;;;;;;;;;26.20;56.30;;;;;;5019794;28;19929;-76
2022/07/23 02:36:22;;;;;;;;;;;26.10;56.20;;;;;;5021541;28;20281;-76
2022/07/23 02:38:49;;;;;;;;;;;26.10;56.40;;;;;;5016624;28;19935;-76
2022/07/23 02:41:15;;;;;;;;;;;26.10;56.40;;;;;;5022458;28;19953;-76
2022/07/23 02:43:42;;;;;;;;;;;26.10;56.70;;;;;;5018249;28;19933;-76
2022/07/23 02:46:08;;;;;;;;;;;26.10;56.60;;;;;;5019670;28;19952;-75
2022/07/23 02:48:36;;;;;;;;;;;26.00;56.50;;;;;;5022212;28;19925;-76
2022/07/23 02:51:03;;;;;;;;;;;26.00;56.60;;;;;;5020272;28;19929;-76
2022/07/23 02:53:30;;;;;;;;;;;26.00;56.60;;;;;;5020890;28;19929;-76
2022/07/23 02:55:57;;;;;;;;;;;26.00;56.70;;;;;;5020199;28;20631;-77
2022/07/23 02:58:24;;;;;;;;;;;26.00;56.80;;;;;;5022132;28;19929;-76
2022/07/23 03:00:51;;;;;;;;;;;25.90;56.90;;;;;;5021884;28;19929;-76
2022/07/23 03:03:18;;;;;;;;;;;25.90;57.00;;;;;;5024298;28;19972;-76
2022/07/23 03:05:46;;;;;;;;;;;25.90;57.00;;;;;;5023560;28;19926;-76
2022/07/23 03:08:13;;;;;;;;;;;25.80;57.00;;;;;;5021512;28;19941;-76
2022/07/23 03:10:40;;;;;;;;;;;25.80;57.10;;;;;;5022211;28;19973;-76
2022/07/23 03:13:06;;;;;;;;;;;25.80;57.20;;;;;;5019248;28;19929;-77
2022/07/23 03:15:33;;;;;;;;;;;25.80;57.10;;;;;;5017049;28;19940;-75
2022/07/23 03:17:59;;;;;;;;;;;25.70;57.10;;;;;;5022046;28;19929;-76
2022/07/23 03:20:26;;;;;;;;;;;25.70;57.10;;;;;;5023932;28;20644;-76
2022/07/23 03:22:54;;;;;;;;;;;25.70;57.20;;;;;;5015860;28;19933;-76
2022/07/23 03:25:20;;;;;;;;;;;25.70;57.20;;;;;;5019500;28;19933;-76
2022/07/23 03:27:47;;;;;;;;;;;25.60;57.30;;;;;;5019726;28;20045;-75
2022/07/23 03:30:13;;;;;;;;;;;25.60;57.30;;;;;;5020930;28;19928;-75
2022/07/23 03:32:40;;;;;;;;;;;25.60;57.40;;;;;;5018898;28;19964;-76
2022/07/23 03:35:07;;;;;;;;;;;25.60;57.40;;;;;;5023066;28;20317;-76
2022/07/23 03:37:33;;;;;;;;;;;25.50;57.40;;;;;;5018492;28;19933;-76
2022/07/23 03:40:01;;;;;;;;;;;25.50;57.40;;;;;;5021211;28;19925;-76
2022/07/23 03:42:28;;;;;;;;;;;25.50;57.40;;;;;;5020499;28;19933;-75
2022/07/23 03:44:54;;;;;;;;;;;25.50;57.50;;;;;;5021829;28;19929;-76
2022/07/23 03:47:21;;;;;;;;;;;25.40;57.50;;;;;;5012249;28;19936;-76
2022/07/23 03:49:48;;;;;;;;;;;25.40;57.50;;;;;;5020321;28;20012;-76
2022/07/23 03:52:14;;;;;;;;;;;25.40;57.40;;;;;;5017378;28;19933;-76
2022/07/23 03:54:41;;;;;;;;;;;25.40;57.40;;;;;;5015591;28;19929;-76
2022/07/23 03:57:09;;;;;;;;;;;25.30;57.50;;;;;;5018752;28;19929;-76
2022/07/23 03:59:36;;;;;;;;;;;25.30;57.60;;;;;;5026080;28;19935;-76
2022/07/23 04:02:02;;;;;;;;;;;25.30;57.60;;;;;;5023973;28;19929;-77
2022/07/23 04:04:29;;;;;;;;;;;25.30;57.70;;;;;;5020049;28;19933;-76
2022/07/23 04:06:55;;;;;;;;;;;25.30;57.80;;;;;;5027028;28;19952;-76
2022/07/23 04:09:22;;;;;;;;;;;25.30;58.00;;;;;;5020259;28;19932;-76
2022/07/23 04:11:49;;;;;;;;;;;25.20;57.90;;;;;;5023174;28;19929;-75
2022/07/23 04:14:17;;;;;;;;;;;25.20;57.80;;;;;;5019622;28;19975;-76
2022/07/23 04:16:43;;;;;;;;;;;25.20;58.00;;;;;;5020984;28;19929;-76
2022/07/23 04:19:10;;;;;;;;;;;25.20;58.00;;;;;;5021574;28;19936;-75
2022/07/23 04:21:36;;;;;;;;;;;25.10;58.10;;;;;;5020141;28;19928;-76
2022/07/23 04:24:03;;;;;;;;;;;25.10;58.10;;;;;;5014265;28;19925;-76
2022/07/23 04:26:30;;;;;;;;;;;25.10;58.10;;;;;;5020541;28;19936;-76
2022/07/23 04:28:56;;;;;;;;;;;25.10;58.10;;;;;;5022662;28;19929;-76
2022/07/23 04:31:24;;;;;;;;;;;25.10;58.20;;;;;;5020858;28;19933;-76
2022/07/23 04:33:51;;;;;;;;;;;25.10;58.30;;;;;;5018275;28;19940;-76
2022/07/23 04:36:17;;;;;;;;;;;25.00;58.20;;;;;;5021375;28;19925;-76
2022/07/23 04:38:44;;;;;;;;;;;25.00;58.30;;;;;;5020398;28;19925;-76
2022/07/23 04:41:10;;;;;;;;;;;25.00;58.30;;;;;;5019464;28;20331;-76
2022/07/23 04:43:37;;;;;;;;;;;25.00;58.40;;;;;;5019292;28;20320;-75
2022/07/23 04:46:03;;;;;;;;;;;24.90;58.50;;;;;;5016468;28;20324;-75
2022/07/23 04:48:31;;;;;;;;;;;24.90;58.80;;;;;;5020321;28;19940;-75
2022/07/23 04:50:58;;;;;;;;;;;24.90;59.00;;;;;;5021952;28;19933;-75
2022/07/23 04:53:24;;;;;;;;;;;24.90;59.20;;;;;;5024735;28;20309;-76
2022/07/23 04:55:51;;;;;;;;;;;24.90;59.50;;;;;;5023488;28;20647;-75
2022/07/23 04:58:17;;;;;;;;;;;24.90;59.60;;;;;;5021793;28;20333;-75
2022/07/23 05:00:44;;;;;;;;;;;24.90;59.80;;;;;;5020550;28;19933;-75
2022/07/23 05:03:11;;;;;;;;;;;24.80;59.80;;;;;;5022951;28;19948;-75
2022/07/23 05:05:39;;;;;;;;;;;24.70;60.10;;;;;;5023523;28;19929;-75
2022/07/23 05:08:05;;;;;;;;;;;24.80;60.40;;;;;;5021118;28;19925;-75
2022/07/23 05:10:32;;;;;;;;;;;24.80;60.50;;;;;;5016146;28;19960;-75
2022/07/23 05:12:58;;;;;;;;;;;24.70;60.60;;;;;;5020364;28;20012;-76
2022/07/23 05:15:25;;;;;;;;;;;24.70;60.70;;;;;;5019851;28;19940;-75
2022/07/23 05:17:52;;;;;;;;;;;24.70;60.80;;;;;;5019469;28;20296;-75
2022/07/23 05:20:18;;;;;;;;;;;24.70;61.10;;;;;;5017034;28;19933;-75
2022/07/23 05:22:46;;;;;;;;;;;24.70;61.40;;;;;;5016668;28;19929;-75
2022/07/23 05:25:13;;;;;;;;;;;24.70;61.50;;;;;;5016129;28;19937;-75
2022/07/23 05:27:39;;;;;;;;;;;24.70;61.60;;;;;;5020557;28;19928;-76
2022/07/23 05:30:06;;;;;;;;;;;24.70;61.60;;;;;;5015459;28;19960;-75
2022/07/23 05:32:33;;;;;;;;;;;24.60;61.80;;;;;;5014113;28;19936;-76
2022/07/23 05:35:00;;;;;;;;;;;24.60;62.10;;;;;;5014117;28;20538;-76
2022/07/23 05:37:26;;;;;;;;;;;24.60;62.20;;;;;;5019894;28;19929;-76
2022/07/23 05:39:54;;;;;;;;;;;24.60;62.70;;;;;;5017175;28;19936;-75
2022/07/23 05:42:21;;;;;;;;;;;24.60;63.10;;;;;;5021886;28;19937;-75
2022/07/23 05:44:47;;;;;;;;;;;24.50;63.10;;;;;;5022548;28;19929;-76
2022/07/23 05:47:14;;;;;;;;;;;24.50;63.30;;;;;;5016300;28;19941;-76
2022/07/23 05:49:41;;;;;;;;;;;24.50;63.40;;;;;;5020003;28;19933;-76
2022/07/23 05:52:07;;;;;;;;;;;24.50;63.60;;;;;;5018335;28;19933;-76
2022/07/23 05:54:34;;;;;;;;;;;24.50;63.80;;;;;;5013451;28;19937;-75
2022/07/23 05:57:03;;;;;;;;;;;24.50;64.20;;;;;;5016569;28;19987;-76
2022/07/23 05:59:29;;;;;;;;;;;24.50;64.40;;;;;;5015649;28;19964;-76
2022/07/23 06:01:56;;;;;;;;;;;24.40;64.40;;;;;;5018018;28;19929;-76
2022/07/23 06:04:22;;;;;;;;;;;24.40;64.40;;;;;;5019609;28;19929;-69
2022/07/23 06:06:49;;;;;;;;;;;24.40;64.60;;;;;;5021316;28;19937;-68
2022/07/23 06:09:15;;;;;;;;;;;24.40;65.30;;;;;;5027271;28;19928;-69
2022/07/23 06:11:42;;;;;;;;;;;24.40;64.70;;;;;;5029588;28;19933;-69
2022/07/23 06:14:10;;;;;;;;;;;24.40;64.90;;;;;;5028698;28;20389;-67
2022/07/23 06:16:36;;;;;;;;;;;24.40;65.00;;;;;;5024258;28;20048;-69
2022/07/23 06:19:03;;;;;;;;;;;24.40;65.20;;;;;;5029228;28;21460;-69
2022/07/23 06:21:30;;;;;;;;;;;24.30;65.20;;;;;;5029784;28;20039;-69
2022/07/23 06:23:56;;;;;;;;;;;24.30;65.40;;;;;;5024239;28;19925;-68
2022/07/23 06:26:23;;;;;;;;;;;24.30;65.60;;;;;;5016875;28;19936;-69
2022/07/23 06:28:49;;;;;;;;;;;24.30;65.70;;;;;;5017966;28;19933;-69
2022/07/23 06:31:17;;;;;;;;;;;24.30;65.80;;;;;;5024872;28;19929;-70
2022/07/23 06:33:44;;;;;;;;;;;24.30;67.30;;;;;;5022847;28;19936;-69
2022/07/23 06:36:10;;;;;;;;;;;24.20;70.40;;;;;;5019962;28;19937;-68
2022/07/23 06:38:37;;;;;;;;;;;24.10;72.50;;;;;;5019672;28;19929;-69
2022/07/23 06:41:03;;;;;;;;;;;23.70;73.50;;;;;;5026698;28;19929;-69
2022/07/23 06:43:31;;;;;;;;;;;23.70;74.40;;;;;;5031354;28;20709;-69
2022/07/23 06:45:57;;;;;;;;;;;23.50;74.90;;;;;;5018817;28;19936;-69
2022/07/23 06:48:25;;;;;;;;;;;23.40;75.40;;;;;;5029971;28;19932;-69
2022/07/23 06:50:52;;;;;;;;;;;23.30;75.50;;;;;;5025399;28;20425;-68
2022/07/23 06:53:19;;;;;;;;;;;23.30;76.40;;;;;;5021018;28;19933;-69
2022/07/23 06:55:45;;;;;;;;;;;23.30;75.50;;;;;;5017922;28;19936;-69
2022/07/23 06:58:13;;;;;;;;;;;23.30;76.40;;;;;;5017807;28;19937;-68
2022/07/23 07:00:40;;;;;;;;;;;23.30;76.50;;;;;;5021045;28;20006;-68
2022/07/23 07:03:06;;;;;;;;;;;23.30;77.00;;;;;;5019956;28;19929;-67
2022/07/23 07:05:34;;;;;;;;;;;23.40;76.80;;;;;;5032819;28;19928;-69
2022/07/23 07:08:01;;;;;;;;;;;23.40;76.50;;;;;;5021061;28;20455;-69
2022/07/23 07:10:27;;;;;;;;;;;23.50;75.00;;;;;;5026991;28;19936;-69
2022/07/23 07:12:54;;;;;;;;;;;23.50;75.60;;;;;;5022899;28;19929;-69
2022/07/23 07:15:20;;;;;;;;;;;23.60;75.00;;;;;;5020427;28;19929;-67
2022/07/23 07:17:47;;;;;;;;;;;23.60;74.80;;;;;;5024566;28;19933;-68
2022/07/23 07:20:14;;;;;;;;;;;23.80;74.60;;;;;;5025556;28;20485;-69
2022/07/23 07:22:42;;;;;;;;;;;23.70;73.50;;;;;;5017298;28;19957;-69
2022/07/23 07:25:09;;;;;;;;;;;23.70;73.70;;;;;;5018344;28;20159;-69
2022/07/23 07:27:35;;;;;;;;;;;23.80;73.50;;;;;;5017559;28;19933;-68
2022/07/23 07:30:02;;;;;;;;;;;23.80;73.00;;;;;;5018416;28;19937;-69
2022/07/23 07:32:29;;;;;;;;;;;23.80;71.80;;;;;;5011057;28;20507;-69
2022/07/23 07:34:56;;;;;;;;;;;23.90;72.30;;;;;;5011180;28;20440;-69
2022/07/23 07:37:22;;;;;;;;;;;23.90;72.20;;;;;;5016856;28;19929;-69
2022/07/23 07:39:50;;;;;;;;;;;23.90;71.70;;;;;;5011444;28;19937;-68
2022/07/23 07:42:17;;;;;;;;;;;23.90;70.90;;;;;;5018374;28;19929;-67
2022/07/23 07:44:43;;;;;;;;;;;24.00;71.40;;;;;;5017670;28;19972;-68
2022/07/23 07:47:10;;;;;;;;;;;24.30;72.60;;;;;;5016547;28;20428;-68
2022/07/23 07:49:36;;;;;;;;;;;24.00;70.30;;;;;;5022183;28;20420;-70
2022/07/23 07:52:03;;;;;;;;;;;24.00;70.50;;;;;;5018093;28;20304;-68
2022/07/23 07:54:30;;;;;;;;;;;24.00;70.40;;;;;;5018658;28;19929;-68
2022/07/23 07:56:57;;;;;;;;;;;23.10;69.00;;;;;;5013374;28;19929;-69
2022/07/23 07:59:25;;;;;;;;;;;24.10;70.50;;;;;;5015300;28;19929;-68
2022/07/23 08:01:52;;;;;;;;;;;24.10;81.70;;;;;;5017847;28;19929;-69
2022/07/23 08:04:18;;;;;;;;;;;24.70;74.70;;;;;;5020398;28;19936;-69
2022/07/23 08:06:45;;;;;;;;;;;24.10;69.50;;;;;;5017553;28;19929;-67
2022/07/23 08:09:11;;;;;;;;;;;24.30;74.10;;;;;;5017643;28;19937;-70
2022/07/23 08:11:38;;;;;;;;;;;24.10;68.50;;;;;;5016887;28;19933;-68
2022/07/23 08:14:06;;;;;;;;;;;24.20;69.10;;;;;;5020406;28;20385;-69
2022/07/23 08:16:32;;;;;;;;;;;24.20;68.80;;;;;;5020085;28;19929;-70
2022/07/23 08:18:59;;;;;;;;;;;24.30;65.60;;;;;;5015912;28;19936;-70
2022/07/23 08:21:25;;;;;;;;;;;24.50;62.90;;;;;;5010386;28;19933;-70
2022/07/23 08:23:52;;;;;;;;;;;24.50;63.30;;;;;;5012086;28;19929;-70
2022/07/23 08:26:19;;;;;;;;;;;24.70;62.70;;;;;;5009142;28;19964;-69
2022/07/23 08:28:45;;;;;;;;;;;24.80;62.90;;;;;;5011795;28;19936;-71
2022/07/23 08:31:15;;;;;;;;;;;24.90;62.00;;;;;;5018661;28;19929;-70
2022/07/23 08:33:41;;;;;;;;;;;25.00;61.60;;;;;;5007711;28;19933;-71
2022/07/23 08:36:08;;;;;;;;;;;25.10;61.50;;;;;;5014543;28;20408;-70
2022/07/23 08:38:35;;;;;;;;;;;25.20;62.10;;;;;;5017215;28;19936;-70
2022/07/23 08:41:04;;;;;;;;;;;25.20;59.70;;;;;;5018951;28;19987;-70
2022/07/23 08:43:31;;;;;;;;;;;25.20;60.30;;;;;;5022841;28;19979;-70
2022/07/23 08:45:59;;;;;;;;;;;25.20;61.80;;;;;;5014219;28;19933;-70
2022/07/23 08:48:28;;;;;;;;;;;25.30;61.40;;;;;;5017108;28;19940;-71
2022/07/23 08:50:55;;;;;;;;;;;25.60;61.60;;;;;;5012803;28;19940;-70
2022/07/23 08:53:22;;;;;;;;;;;25.70;61.80;;;;;;5005966;28;19929;-70
2022/07/23 08:55:49;;;;;;;;;;;25.90;61.00;;;;;;5014095;28;20582;-71
2022/07/23 08:58:16;;;;;;;;;;;26.10;60.30;;;;;;5006956;28;19929;-71
2022/07/23 09:00:43;;;;;;;;;;;26.40;57.80;;;;;;5015339;28;20424;-69
2022/07/23 09:03:15;;;;;;;;;;;26.30;58.30;;;;;;5020235;28;19937;-70
2022/07/23 09:05:43;;;;;;;;;;;26.20;58.80;;;;;;5014532;28;19941;-68
2022/07/23 09:08:11;;;;;;;;;;;25.90;59.50;;;;;;5017097;28;19929;-69
2022/07/23 09:10:45;;;;;;;;;;;25.70;60.10;;;;;;5021038;28;20300;-69
2022/07/23 09:13:28;;;;;;;;;;;25.50;60.60;;;;;;5025138;28;20431;-69
2022/07/23 09:15:56;;;;;;;;;;;25.50;61.10;;;;;;5023485;28;19939;-71
2022/07/23 09:18:29;;;;;;;;;;;25.40;61.50;;;;;;5020174;28;20388;-72
2022/07/23 09:21:07;;;;;;;;;;;25.70;58.80;;;;;;5023879;28;19929;-71
2022/07/23 09:23:38;;;;;;;;;;;25.80;59.40;;;;;;5022145;28;19960;-70
2022/07/23 09:26:17;;;;;;;;;;;26.20;58.30;;;;;;5020452;28;20003;-71
2022/07/23 09:28:48;;;;;;;;;;;26.40;57.80;;;;;;5018365;28;19933;-70
2022/07/23 09:31:15;;;;;;;;;;;26.70;57.30;;;;;;5019656;28;19936;-69
2022/07/23 09:33:42;;;;;;;;;;;26.90;56.40;;;;;;5017766;28;19929;-70
2022/07/23 09:36:10;;;;;;;;;;;27.00;55.80;;;;;;5015536;28;19929;-68
2022/07/23 09:38:48;;;;;;;;;;;26.90;56.10;;;;;;5014721;28;19929;-70
2022/07/23 09:41:14;;;;;;;;;;;26.70;56.80;;;;;;5012471;28;20330;-69
2022/07/23 09:43:41;;;;;;;;;;;26.50;57.60;;;;;;5012664;28;20113;-70
2022/07/23 09:46:21;;;;;;;;;;;26.30;58.00;;;;;;5008648;28;20388;-69
2022/07/23 09:48:47;;;;;;;;;;;26.20;58.60;;;;;;5014925;28;20389;-69
2022/07/23 09:51:16;;;;;;;;;;;26.00;58.80;;;;;;5008238;28;19933;-69
2022/07/23 09:53:43;;;;;;;;;;;25.90;59.40;;;;;;5013024;28;20643;-69
2022/07/23 09:56:12;;;;;;;;;;;25.90;59.50;;;;;;5008610;28;19933;-69
2022/07/23 09:58:44;;;;;;;;;;;25.90;59.50;;;;;;5016385;28;20055;-69
2022/07/23 10:01:11;;;;;;;;;;;25.90;59.80;;;;;;5015262;28;19976;-70
2022/07/23 10:03:38;;;;;;;;;;;25.90;59.80;;;;;;5014260;28;19929;-69
2022/07/23 10:06:05;;;;;;;;;;;25.90;59.70;;;;;;5013084;28;19933;-70
2022/07/23 10:08:33;;;;;;;;;;;25.90;59.50;;;;;;5018094;28;19925;-69
2022/07/23 10:11:01;;;;;;;;;;;25.90;59.50;;;;;;5020865;28;19925;-69
2022/07/23 10:16:14;;;;;;;;;;;26.00;60.20;;;;;;5020031;28;20056;-68
2022/07/23 10:18:41;;;;;;;;;;;26.10;60.40;;;;;;5022940;28;20395;-70
2022/07/23 10:21:09;;;;;;;;;;;26.10;59.70;;;;;;5019260;28;19933;-70
2022/07/23 10:23:40;;;;;;;;;;;26.10;60.20;;;;;;5019770;28;19939;-72
2022/07/23 10:26:13;;;;;;;;;;;26.20;59.70;;;;;;5014106;28;19933;-70
2022/07/23 10:28:58;;;;;;;;;;;26.50;58.60;;;;;;5019885;28;19936;-69
2022/07/23 10:31:29;;;;;;;;;;;26.80;57.50;;;;;;5019316;28;19925;-69
2022/07/23 10:33:57;;;;;;;;;;;26.80;58.00;;;;;;5019691;28;20012;-69
2022/07/23 10:36:28;;;;;;;;;;;26.80;58.40;;;;;;5026153;28;20695;-69
2022/07/23 10:38:59;;;;;;;;;;;26.80;58.30;;;;;;5023248;28;19936;-70
2022/07/23 10:41:32;;;;;;;;;;;26.80;58.60;;;;;;5027506;28;19936;-68
2022/07/23 10:44:06;;;;;;;;;;;26.80;59.00;;;;;;5024473;28;19932;-69
2022/07/23 10:46:37;;;;;;;;;;;26.80;58.80;;;;;;5017872;28;19936;-70
2022/07/23 10:49:21;;;;;;;;;;;26.80;58.40;;;;;;5025095;28;19972;-69
2022/07/23 10:52:02;;;;;;;;;;;26.80;58.10;;;;;;5023298;28;20319;-69
2022/07/23 10:54:30;;;;;;;;;;;26.80;58.70;;;;;;5024755;28;19944;-70
2022/07/23 10:57:10;;;;;;;;;;;26.90;58.90;;;;;;5018012;28;20543;-69
2022/07/23 10:59:55;;;;;;;;;;;26.90;58.60;;;;;;5011278;28;19962;-71
2022/07/23 11:02:22;;;;;;;;;;;27.10;56.70;;;;;;5020526;28;20421;-71
2022/07/23 11:04:50;;;;;;;;;;;27.40;56.30;;;;;;5022702;28;19964;-69
2022/07/23 11:07:17;;;;;;;;;;;27.60;56.10;;;;;;5019160;28;19963;-69
2022/07/23 11:09:46;;;;;;;;;;;27.60;55.80;;;;;;5021323;28;19933;-70
2022/07/23 11:12:31;;;;;;;;;;;27.60;56.20;;;;;;5024401;28;19929;-70
2022/07/23 11:15:01;;;;;;;;;;;27.60;55.90;;;;;;5018545;28;19933;-69
2022/07/23 11:17:30;;;;;;;;;;;27.60;55.60;;;;;;5019722;28;20340;-70
2022/07/23 11:20:17;;;;;;;;;;;27.60;55.60;;;;;;5020608;28;20707;-69
2022/07/23 11:22:48;;;;;;;;;;;27.50;55.70;;;;;;5020825;28;20371;-69
2022/07/23 11:25:30;;;;;;;;;;;27.60;56.30;;;;;;5018820;28;19940;-70
2022/07/23 11:28:07;;;;;;;;;;;27.60;56.50;;;;;;5020458;28;19971;-70
2022/07/23 11:30:42;;;;;;;;;;;27.60;55.50;;;;;;5016277;28;19929;-71
2022/07/23 11:33:18;;;;;;;;;;;27.70;55.90;;;;;;5026352;28;19929;-69
2022/07/23 11:35:46;;;;;;;;;;;28.20;53.20;;;;;;5018688;28;19933;-70
2022/07/23 11:38:14;;;;;;;;;;;28.80;52.20;;;;;;5022646;28;20308;-69
2022/07/23 11:40:44;;;;;;;;;;;28.80;52.20;;;;;;5024481;28;19933;-69
2022/07/23 11:43:11;;;;;;;;;;;28.70;53.10;;;;;;5022528;28;19933;-70
2022/07/23 11:45:38;;;;;;;;;;;28.60;53.70;;;;;;5020175;28;19936;-69
2022/07/23 11:48:05;;;;;;;;;;;28.50;53.90;;;;;;5022769;28;19936;-70
2022/07/23 11:50:32;;;;;;;;;;;28.40;54.70;;;;;;5020616;28;19983;-70
2022/07/23 11:52:59;;;;;;;;;;;28.40;54.80;;;;;;5018254;28;19948;-68
2022/07/23 11:55:25;;;;;;;;;;;28.30;55.00;;;;;;5017256;28;19928;-70
2022/07/23 11:57:54;;;;;;;;;;;28.30;54.70;;;;;;5017998;28;20541;-70
2022/07/23 12:00:21;;;;;;;;;;;28.30;53.90;;;;;;5016242;28;20483;-70
2022/07/23 12:02:49;;;;;;;;;;;28.30;54.30;;;;;;5020174;28;19936;-70
2022/07/23 12:05:17;;;;;;;;;;;28.30;54.60;;;;;;5014683;28;19936;-70
2022/07/23 12:07:44;;;;;;;;;;;28.30;54.50;;;;;;5016078;28;19929;-70
2022/07/23 12:10:12;;;;;;;;;;;28.30;53.80;;;;;;5017257;28;19968;-70
2022/07/23 12:12:40;;;;;;;;;;;28.30;53.60;;;;;;5020371;28;20380;-70
2022/07/23 12:15:09;;;;;;;;;;;28.40;53.60;;;;;;5015073;28;19929;-68
2022/07/23 12:17:36;;;;;;;;;;;28.40;53.60;;;;;;5016795;28;19937;-70
2022/07/23 12:20:04;;;;;;;;;;;28.40;53.70;;;;;;5018939;28;19936;-69
2022/07/23 12:22:35;;;;;;;;;;;28.50;53.50;;;;;;5019754;28;19933;-70
2022/07/23 12:25:04;;;;;;;;;;;28.60;52.70;;;;;;5017750;28;19929;-69
2022/07/23 12:27:31;;;;;;;;;;;28.60;53.10;;;;;;5018180;28;19933;-69
2022/07/23 12:29:57;;;;;;;;;;;28.60;53.00;;;;;;5020841;28;19925;-69
2022/07/23 12:32:26;;;;;;;;;;;28.70;52.70;;;;;;5014260;28;20424;-68
2022/07/23 12:35:04;;;;;;;;;;;28.70;52.90;;;;;;5016184;28;19980;-69
2022/07/23 12:37:32;;;;;;;;;;;28.80;52.10;;;;;;5018922;28;19966;-70
2022/07/23 12:39:58;;;;;;;;;;;28.90;52.80;;;;;;5013583;28;19952;-68
2022/07/23 12:42:25;;;;;;;;;;;28.90;52.50;;;;;;5018118;28;19952;-69
2022/07/23 12:45:08;;;;;;;;;;;29.00;52.70;;;;;;5018356;28;19936;-70
2022/07/23 12:47:54;;;;;;;;;;;29.00;52.50;;;;;;5023360;28;21878;-70
2022/07/23 12:50:51;;;;;;;;;;;29.10;52.70;;;;;;5023760;28;20051;-68
2022/07/23 12:53:21;;;;;;;;;;;29.10;52.40;;;;;;4979118;28;20032;-68
2022/07/23 12:55:48;;;;;;;;;;;29.20;52.70;;;;;;5012219;28;19931;-69
2022/07/23 12:58:16;;;;;;;;;;;29.20;51.60;;;;;;5023270;28;20571;-69
2022/07/23 13:00:56;;;;;;;;;;;29.30;52.00;;;;;;5025535;28;19937;-69
2022/07/23 13:03:26;;;;;;;;;;;29.30;52.20;;;;;;5021601;28;19999;-69
2022/07/23 13:05:53;;;;;;;;;;;29.40;52.80;;;;;;5021384;28;19929;-70
2022/07/23 13:08:21;;;;;;;;;;;29.40;52.20;;;;;;5016661;28;19945;-70
2022/07/23 13:10:48;;;;;;;;;;;29.50;52.10;;;;;;5019739;28;19933;-69
2022/07/23 13:13:15;;;;;;;;;;;29.50;51.00;;;;;;5018394;28;19929;-71
2022/07/23 13:15:42;;;;;;;;;;;29.50;51.20;;;;;;5019314;28;19929;-72
2022/07/23 13:18:08;;;;;;;;;;;29.60;50.70;;;;;;5018033;28;20901;-71
2022/07/23 13:20:36;;;;;;;;;;;29.60;51.70;;;;;;5013229;28;20005;-71
2022/07/23 13:23:02;;;;;;;;;;;29.70;52.00;;;;;;5020391;28;19936;-70
2022/07/23 13:25:30;;;;;;;;;;;29.70;51.50;;;;;;5019880;28;19940;-69
2022/07/23 13:27:57;;;;;;;;;;;29.80;51.60;;;;;;5021271;28;20321;-68
2022/07/23 13:30:24;;;;;;;;;;;29.70;51.80;;;;;;5013701;28;19933;-68
2022/07/23 13:32:52;;;;;;;;;;;29.80;51.40;;;;;;5020830;28;20385;-71
2022/07/23 13:35:18;;;;;;;;;;;29.80;51.60;;;;;;5017996;28;19936;-68
2022/07/23 13:37:45;;;;;;;;;;;29.80;51.10;;;;;;5017361;28;20020;-70
2022/07/23 13:40:12;;;;;;;;;;;29.80;51.20;;;;;;5021422;28;19952;-69
2022/07/23 13:42:40;;;;;;;;;;;29.80;50.60;;;;;;5020196;28;20575;-69
2022/07/23 13:45:07;;;;;;;;;;;29.80;51.10;;;;;;5021622;28;19929;-70
2022/07/23 13:47:34;;;;;;;;;;;29.80;51.30;;;;;;5021648;28;19975;-71
2022/07/23 13:50:00;;;;;;;;;;;29.80;51.20;;;;;;5018639;28;20013;-71
2022/07/23 13:52:27;;;;;;;;;;;29.80;50.70;;;;;;5020247;28;19929;-70
2022/07/23 13:54:54;;;;;;;;;;;29.90;51.30;;;;;;5014037;28;19933;-70
2022/07/23 13:57:20;;;;;;;;;;;29.90;51.20;;;;;;5019139;28;19929;-71
2022/07/23 13:59:48;;;;;;;;;;;29.90;51.30;;;;;;5020601;28;19936;-71
2022/07/23 14:02:16;;;;;;;;;;;29.90;51.00;;;;;;5022128;28;19925;-70
2022/07/23 14:04:43;;;;;;;;;;;29.90;50.20;;;;;;5018540;28;19936;-71
2022/07/23 14:07:09;;;;;;;;;;;29.90;50.10;;;;;;5019541;28;20298;-70
2022/07/23 14:09:36;;;;;;;;;;;29.90;50.20;;;;;;5020748;28;20617;-70
2022/07/23 14:12:03;;;;;;;;;;;30.00;49.90;;;;;;5017644;28;19929;-70
2022/07/23 14:14:29;;;;;;;;;;;30.00;50.20;;;;;;5018204;28;19929;-70
2022/07/23 14:16:57;;;;;;;;;;;30.10;49.60;;;;;;5015113;28;19940;-69
2022/07/23 14:19:24;;;;;;;;;;;30.10;49.20;;;;;;5014156;28;19933;-69
2022/07/23 14:21:50;;;;;;;;;;;30.10;48.90;;;;;;5020591;28;20491;-69
2022/07/23 14:24:17;;;;;;;;;;;30.20;49.30;;;;;;5018048;28;20016;-67